Time;durP1;ratioP1;P1;durP2;ratioP2;P2;SDS_P1;SDS_P2;PMS_P1;PMS_P2;Temp;Humidity;BMP_temperature;BMP_pressure;BME280_temperature;BME280_humidity;BME280_pressure;Samples;Min_cycle;Max_cycle;Signal;HPM_P1;HPM_P2
2022/09/25 00:00:35;;;;;;;2.28;0.80;;;10.90;99.90;;;;;;5009524;28;20038;-80
2022/09/25 00:03:01;;;;;;;3.45;0.30;;;10.80;99.90;;;;;;5008491;28;20037;-81
2022/09/25 00:05:26;;;;;;;1.02;0.20;;;10.80;99.90;;;;;;5008794;28;20536;-80
2022/09/25 00:07:55;;;;;;;1.30;0.20;;;10.80;99.90;;;;;;5008857;28;20033;-81
2022/09/25 00:10:24;;;;;;;2.55;0.20;;;10.70;99.90;;;;;;5007953;28;20058;-80
2022/09/25 00:12:50;;;;;;;1.02;0.20;;;10.70;99.90;;;;;;5007534;28;20501;-83
2022/09/25 00:15:16;;;;;;;1.80;0.40;;;10.70;99.90;;;;;;5007395;28;20048;-81
2022/09/25 00:17:42;;;;;;;2.00;0.40;;;10.70;99.90;;;;;;5007967;28;20447;-82
2022/09/25 00:20:09;;;;;;;3.47;0.40;;;10.70;99.90;;;;;;4990553;28;20049;-79
2022/09/25 00:22:34;;;;;;;3.03;0.40;;;10.70;99.90;;;;;;5007142;28;20025;-82
2022/09/25 00:25:01;;;;;;;6.53;0.40;;;10.70;99.90;;;;;;5008171;28;20033;-79
2022/09/25 00:27:27;;;;;;;4.70;0.55;;;10.70;99.90;;;;;;5007467;28;20474;-79
2022/09/25 00:29:52;;;;;;;4.88;0.40;;;10.70;99.90;;;;;;5007674;28;20022;-80
2022/09/25 00:32:18;;;;;;;3.50;0.40;;;10.70;99.90;;;;;;5008502;28;20036;-81
2022/09/25 00:34:44;;;;;;;3.60;0.40;;;10.70;99.90;;;;;;5008743;28;20026;-82
2022/09/25 00:37:10;;;;;;;3.53;0.30;;;10.70;99.90;;;;;;4990868;28;20029;-81
2022/09/25 00:39:36;;;;;;;3.35;0.40;;;10.70;99.90;;;;;;5006808;28;20087;-81
2022/09/25 00:42:01;;;;;;;1.98;0.40;;;10.70;99.90;;;;;;5008383;28;20498;-81
2022/09/25 00:45:06;;;;;;;2.45;0.30;;;10.70;99.90;;;;;;5008202;28;20037;-80
2022/09/25 00:47:54;;;;;;;5.05;0.50;;;10.60;99.90;;;;;;4977259;28;20149;-80
2022/09/25 00:50:29;;;;;;;5.53;0.50;;;10.60;99.90;;;;;;5006210;28;20407;-82
2022/09/25 00:53:27;;;;;;;2.75;0.35;;;10.60;99.90;;;;;;4990678;28;20053;-80
2022/09/25 00:55:54;;;;;;;5.13;0.40;;;10.60;99.90;;;;;;5006024;28;20135;-80
2022/09/25 00:58:22;;;;;;;2.90;0.50;;;10.50;99.90;;;;;;5006568;28;20396;-80
2022/09/25 01:00:50;;;;;;;3.42;0.30;;;10.50;99.90;;;;;;4990514;28;20022;-81
2022/09/25 01:03:17;;;;;;;4.28;0.40;;;10.50;99.90;;;;;;4990361;28;20096;-82
2022/09/25 01:05:44;;;;;;;2.72;0.50;;;10.50;99.90;;;;;;5006999;28;20436;-82
2022/09/25 01:08:18;;;;;;;4.93;0.70;;;10.50;99.90;;;;;;5007212;28;20080;-79
2022/09/25 01:10:44;;;;;;;3.05;0.30;;;10.40;99.90;;;;;;4991001;28;20112;-82
2022/09/25 01:13:12;;;;;;;2.35;0.40;;;10.40;99.90;;;;;;5006280;28;20431;-79
2022/09/25 01:16:07;;;;;;;2.08;0.20;;;10.40;99.90;;;;;;5006483;28;20395;-79
2022/09/25 01:18:52;;;;;;;3.13;0.60;;;10.40;99.90;;;;;;5000877;28;20104;-79
2022/09/25 01:21:26;;;;;;;1.00;0.30;;;10.40;99.90;;;;;;5006325;28;20036;-79
2022/09/25 01:24:07;;;;;;;2.70;0.40;;;10.30;99.90;;;;;;5021652;28;20090;-80
2022/09/25 01:27:00;;;;;;;2.53;0.40;;;10.30;99.90;;;;;;5023014;28;20076;-81
2022/09/25 01:29:39;;;;;;;4.32;0.40;;;10.30;99.90;;;;;;5005166;28;20031;-81
2022/09/25 01:32:16;;;;;;;3.47;0.40;;;10.20;99.90;;;;;;5019933;28;20033;-82
2022/09/25 01:35:03;;;;;;;4.75;0.50;;;10.20;99.90;;;;;;5008162;28;20065;-82
2022/09/25 01:37:44;;;;;;;3.72;0.40;;;10.20;99.90;;;;;;5007615;28;20033;-78
2022/09/25 01:40:24;;;;;;;2.85;0.40;;;10.20;99.90;;;;;;5005938;28;20086;-79
2022/09/25 01:43:00;;;;;;;2.75;0.50;;;10.10;99.90;;;;;;5022093;28;20053;-79
2022/09/25 01:45:46;;;;;;;4.13;0.50;;;10.20;99.90;;;;;;5022988;28;20045;-81
2022/09/25 01:48:16;;;;;;;4.28;0.40;;;10.10;99.90;;;;;;4969355;28;20605;-82
2022/09/25 01:50:51;;;;;;;3.13;0.30;;;10.10;99.90;;;;;;5006018;28;20056;-79
2022/09/25 01:53:25;;;;;;;4.07;0.45;;;10.00;99.90;;;;;;5004960;28;20064;-80
2022/09/25 01:55:58;;;;;;;3.35;0.65;;;10.00;99.90;;;;;;5006636;28;20049;-80
2022/09/25 01:58:30;;;;;;;4.07;0.40;;;10.00;99.90;;;;;;5021134;28;20173;-82
2022/09/25 02:01:11;;;;;;;1.65;0.40;;;10.00;99.90;;;;;;5008259;28;20034;-80
2022/09/25 02:03:47;;;;;;;;;;;10.00;99.90;;;;;;5011247;28;20351;-81
2022/09/25 02:06:18;;;;;;;2.88;0.30;;;10.00;99.90;;;;;;4993756;28;19913;-82
2022/09/25 02:09:06;;;;;;;2.60;0.30;;;10.00;99.90;;;;;;5010786;28;20497;-81
2022/09/25 02:11:38;;;;;;;1.90;0.25;;;10.00;99.90;;;;;;5011003;28;20135;-81
2022/09/25 02:14:21;;;;;;;1.23;0.20;;;9.90;99.90;;;;;;5011678;28;20022;-80
2022/09/25 02:16:51;;;;;;;1.98;0.30;;;9.90;99.90;;;;;;5009961;28;20599;-80
2022/09/25 02:22:11;;;;;;;2.72;0.20;;;9.90;99.90;;;;;;5013455;28;20133;-81
2022/09/25 02:24:55;;;;;;;1.13;0.30;;;9.80;99.90;;;;;;5011290;28;20474;-80
2022/09/25 02:27:23;;;;;;;0.90;0.30;;;9.80;99.90;;;;;;4994219;28;20057;-82
2022/09/25 02:29:49;;;;;;;0.85;0.20;;;9.80;99.90;;;;;;5010048;28;20080;-81
2022/09/25 02:32:19;;;;;;;1.13;0.30;;;9.70;99.90;;;;;;4992815;28;20057;-80
2022/09/25 02:34:45;;;;;;;;;;;9.60;99.90;;;;;;4993812;28;20034;-81
2022/09/25 02:37:12;;;;;;;1.98;0.20;;;9.60;99.90;;;;;;5009486;28;20320;-80
2022/09/25 02:39:39;;;;;;;3.53;0.30;;;9.60;99.90;;;;;;5026023;28;20022;-81
2022/09/25 02:42:18;;;;;;;1.15;0.20;;;9.50;99.90;;;;;;4989964;28;20553;-81
2022/09/25 02:45:10;;;;;;;2.00;0.20;;;9.40;99.90;;;;;;5009812;28;20682;-78
2022/09/25 02:48:11;;;;;;;1.55;0.40;;;9.40;99.90;;;;;;5007557;28;20030;-82
2022/09/25 02:51:15;;;;;;;1.63;0.20;;;9.20;99.90;;;;;;5009249;28;20040;-82
2022/09/25 02:53:45;;;;;;;2.50;0.20;;;9.20;99.90;;;;;;4994106;28;20038;-82
2022/09/25 02:56:19;;;;;;;0.98;0.20;;;9.20;99.90;;;;;;5009071;28;20390;-79
2022/09/25 02:58:50;;;;;;;1.48;0.20;;;9.20;99.90;;;;;;5007503;28;20029;-79
2022/09/25 03:01:19;;;;;;;0.57;0.20;;;9.10;99.90;;;;;;5008450;28;20280;-79
2022/09/25 03:03:47;;;;;;;0.77;0.20;;;9.00;99.90;;;;;;5009108;28;20083;-82
2022/09/25 03:06:12;;;;;;;1.20;0.30;;;9.00;99.90;;;;;;5025634;28;20032;-80
2022/09/25 03:08:45;;;;;;;1.98;0.25;;;9.00;99.90;;;;;;5010965;28;20113;-83
2022/09/25 03:11:14;;;;;;;0.50;0.20;;;8.90;99.90;;;;;;5008304;28;20022;-80
2022/09/25 03:13:41;;;;;;;1.15;0.20;;;8.80;99.90;;;;;;5008440;28;20117;-80
2022/09/25 03:16:39;;;;;;;0.68;0.20;;;8.80;99.90;;;;;;5009984;28;20566;-78
2022/09/25 03:19:05;;;;;;;1.10;0.20;;;8.80;99.90;;;;;;4988145;28;20392;-81
2022/09/25 03:21:31;;;;;;;1.05;0.20;;;8.70;99.90;;;;;;5008358;28;20532;-79
2022/09/25 03:23:59;;;;;;;0.52;0.20;;;8.70;99.90;;;;;;5009015;28;20117;-79
2022/09/25 03:26:26;;;;;;;0.98;0.20;;;8.60;99.90;;;;;;5008470;28;20119;-82
2022/09/25 03:28:52;;;;;;;1.55;0.10;;;8.60;99.90;;;;;;5008431;28;20445;-80
2022/09/25 03:31:19;;;;;;;1.30;0.20;;;8.50;99.90;;;;;;4991329;28;20083;-79
2022/09/25 03:33:45;;;;;;;1.63;0.20;;;8.50;99.90;;;;;;5008625;28;20537;-78
2022/09/25 03:36:10;;;;;;;0.88;0.10;;;8.40;99.90;;;;;;5007932;28;20077;-79
2022/09/25 03:38:37;;;;;;;0.30;0.17;;;8.40;99.90;;;;;;5008951;28;20049;-82
2022/09/25 03:41:07;;;;;;;0.98;0.20;;;8.40;99.90;;;;;;4992182;28;20034;-80
2022/09/25 03:43:38;;;;;;;0.38;0.10;;;8.40;99.90;;;;;;5012739;28;20026;-81
2022/09/25 03:46:05;;;;;;;0.43;0.20;;;8.30;99.90;;;;;;5009583;28;20032;-80
2022/09/25 03:48:32;;;;;;;1.13;0.20;;;8.30;99.90;;;;;;5024498;28;20503;-81
2022/09/25 03:50:58;;;;;;;1.55;0.20;;;8.30;99.90;;;;;;4992156;28;20058;-81
2022/09/25 03:53:24;;;;;;;0.70;0.20;;;8.30;99.90;;;;;;5009494;28;20065;-78
2022/09/25 03:55:50;;;;;;;0.98;0.30;;;8.30;99.90;;;;;;4991459;28;20401;-82
2022/09/25 03:58:16;;;;;;;0.65;0.13;;;8.20;99.90;;;;;;5006251;28;20540;-80
2022/09/25 04:00:44;;;;;;;1.33;0.20;;;8.20;99.90;;;;;;4991999;28;20029;-82
2022/09/25 04:03:11;;;;;;;0.65;0.10;;;8.20;99.90;;;;;;5007289;28;20030;-79
2022/09/25 04:05:37;;;;;;;1.05;0.10;;;8.20;99.90;;;;;;5007872;28;20489;-82
2022/09/25 04:08:03;;;;;;;1.65;0.10;;;8.20;99.90;;;;;;5007959;28;20100;-81
2022/09/25 04:10:30;;;;;;;0.40;0.10;;;8.30;99.90;;;;;;4991125;28;20542;-78
2022/09/25 04:12:57;;;;;;;0.50;0.10;;;8.20;99.90;;;;;;5007771;28;20100;-82
2022/09/25 04:15:22;;;;;;;2.00;0.10;;;8.10;99.90;;;;;;5007439;28;20033;-82
2022/09/25 04:17:48;;;;;;;1.55;0.10;;;8.10;99.90;;;;;;5008706;28;20450;-82
2022/09/25 04:20:15;;;;;;;1.25;0.10;;;8.10;99.90;;;;;;5006975;28;20032;-80
2022/09/25 04:22:40;;;;;;;0.88;0.10;;;8.00;99.90;;;;;;4991052;28;20083;-82
2022/09/25 04:25:08;;;;;;;3.60;0.13;;;8.00;99.90;;;;;;5022052;28;20038;-81
2022/09/25 04:27:33;;;;;;;0.40;0.10;;;8.00;99.90;;;;;;5007381;28;20042;-82
2022/09/25 04:30:00;;;;;;;1.15;0.30;;;8.00;99.90;;;;;;5008818;28;20098;-78
2022/09/25 04:35:10;;;;;;;0.93;0.10;;;7.90;99.90;;;;;;5008308;28;20030;-82
2022/09/25 04:37:36;;;;;;;0.50;0.10;;;7.90;99.90;;;;;;4991504;28;20037;-81
2022/09/25 04:40:02;;;;;;;1.73;0.10;;;7.90;99.90;;;;;;4990455;28;20014;-81
2022/09/25 04:42:28;;;;;;;1.08;0.20;;;7.80;99.90;;;;;;4989887;28;20517;-79
2022/09/25 04:44:55;;;;;;;2.75;0.20;;;7.80;99.90;;;;;;5007280;28;20026;-80
2022/09/25 04:47:22;;;;;;;1.70;0.20;;;7.80;99.90;;;;;;5008345;28;20034;-82
2022/09/25 04:49:48;;;;;;;1.10;0.20;;;7.80;99.90;;;;;;4991021;28;20474;-78
2022/09/25 04:52:15;;;;;;;0.70;0.20;;;7.80;99.90;;;;;;4988353;28;20066;-80
2022/09/25 04:54:41;;;;;;;0.85;0.20;;;7.60;99.90;;;;;;5007604;28;20478;-81
2022/09/25 04:57:10;;;;;;;1.30;0.30;;;7.70;99.90;;;;;;5007061;28;20417;-79
2022/09/25 04:59:36;;;;;;;0.80;0.10;;;7.70;99.90;;;;;;5006705;28;20445;-80
2022/09/25 05:02:02;;;;;;;1.15;0.20;;;7.70;99.90;;;;;;5002904;28;20037;-79
2022/09/25 05:04:28;;;;;;;0.50;0.10;;;7.70;99.90;;;;;;5007799;28;20038;-82
2022/09/25 05:06:53;;;;;;;2.00;0.20;;;7.70;99.90;;;;;;4990999;28;20146;-80
2022/09/25 05:09:19;;;;;;;0.70;0.10;;;7.70;99.90;;;;;;5007677;28;20100;-79
2022/09/25 05:11:46;;;;;;;0.50;0.10;;;7.70;99.90;;;;;;5006705;28;20026;-79
2022/09/25 05:14:11;;;;;;;0.50;0.20;;;7.60;99.90;;;;;;5007131;28;20038;-79
2022/09/25 05:16:37;;;;;;;0.80;0.10;;;7.60;99.90;;;;;;5006073;28;20037;-78
2022/09/25 05:19:03;;;;;;;0.50;0.10;;;7.70;99.90;;;;;;5008192;28;20037;-81
2022/09/25 05:21:29;;;;;;;2.15;0.13;;;7.60;99.90;;;;;;4990663;28;20025;-80
2022/09/25 05:23:55;;;;;;;1.15;0.15;;;7.60;99.90;;;;;;4990182;28;20167;-81
2022/09/25 05:26:22;;;;;;;0.70;0.20;;;7.50;99.90;;;;;;5006266;28;20033;-79
2022/09/25 05:28:50;;;;;;;0.43;0.20;;;7.50;99.90;;;;;;5007493;28;20113;-79
2022/09/25 05:31:16;;;;;;;0.55;0.10;;;7.40;99.90;;;;;;5005941;28;20033;-81
2022/09/25 05:33:42;;;;;;;1.90;0.20;;;7.40;99.90;;;;;;4990089;28;20034;-80
2022/09/25 05:36:09;;;;;;;1.02;0.13;;;7.40;99.90;;;;;;5007407;28;20029;-81
2022/09/25 05:38:37;;;;;;;1.80;0.20;;;7.40;99.90;;;;;;4989944;28;20030;-78
2022/09/25 05:41:04;;;;;;;2.22;0.10;;;7.40;99.90;;;;;;4989149;28;20120;-81
2022/09/25 05:43:31;;;;;;;0.32;0.10;;;7.50;99.90;;;;;;5005643;28;20105;-78
2022/09/25 05:45:57;;;;;;;0.95;0.10;;;7.50;99.90;;;;;;4989809;28;20022;-79
2022/09/25 05:48:23;;;;;;;0.60;0.20;;;7.40;99.90;;;;;;5005852;28;20343;-79
2022/09/25 05:50:53;;;;;;;0.30;0.10;;;7.40;99.90;;;;;;5021824;28;20049;-78
2022/09/25 05:53:19;;;;;;;0.60;0.15;;;7.40;99.90;;;;;;5005203;28;20037;-79
2022/09/25 05:55:52;;;;;;;0.88;0.20;;;7.40;99.90;;;;;;4989217;28;20042;-78
2022/09/25 05:58:19;;;;;;;0.90;0.20;;;7.50;99.90;;;;;;5006961;28;20565;-81
2022/09/25 06:00:45;;;;;;;0.50;0.10;;;7.50;99.90;;;;;;5007350;28;20373;-79
2022/09/25 06:03:11;;;;;;;1.95;0.20;;;7.40;99.90;;;;;;4988530;28;20027;-79
2022/09/25 06:05:39;;;;;;;1.80;0.25;;;7.60;99.90;;;;;;5005792;28;20042;-79
2022/09/25 06:08:05;;;;;;;0.45;0.10;;;7.70;99.90;;;;;;5005642;28;20041;-82
2022/09/25 06:10:30;;;;;;;1.50;0.20;;;7.70;99.90;;;;;;5004510;28;20037;-79
2022/09/25 06:12:57;;;;;;;0.60;0.20;;;7.80;99.90;;;;;;5006068;28;20030;-78
2022/09/25 06:15:24;;;;;;;1.63;0.20;;;7.80;99.90;;;;;;5006153;28;20038;-78
2022/09/25 06:17:50;;;;;;;0.75;0.10;;;7.90;99.90;;;;;;5006918;28;20049;-80
2022/09/25 06:20:16;;;;;;;0.38;0.17;;;7.90;99.90;;;;;;4988693;28;20057;-77
2022/09/25 06:22:43;;;;;;;3.65;0.30;;;8.00;99.90;;;;;;5006179;28;20486;-79
2022/09/25 06:25:09;;;;;;;1.00;0.20;;;8.10;99.90;;;;;;5007324;28;20478;-78
2022/09/25 06:27:35;;;;;;;2.70;0.30;;;8.10;99.90;;;;;;5006936;28;20116;-78
2022/09/25 06:30:01;;;;;;;1.40;0.30;;;8.20;99.90;;;;;;5006738;28;20030;-80
2022/09/25 06:32:27;;;;;;;2.15;0.20;;;8.20;99.90;;;;;;4988243;28;20103;-77
2022/09/25 06:34:53;;;;;;;0.80;0.20;;;8.20;99.90;;;;;;5006773;28;20087;-81
2022/09/25 06:37:19;;;;;;;0.63;0.17;;;8.20;99.90;;;;;;5005222;28;20056;-78
2022/09/25 06:39:44;;;;;;;1.02;0.20;;;8.30;99.90;;;;;;5010857;28;20030;-78
2022/09/25 06:42:10;;;;;;;0.70;0.20;;;8.60;99.90;;;;;;4988744;28;20042;-79
2022/09/25 06:44:36;;;;;;;1.65;0.22;;;8.70;99.90;;;;;;4990620;28;20072;-77
2022/09/25 06:47:01;;;;;;;0.82;0.22;;;8.80;99.90;;;;;;4992954;28;22209;-80
2022/09/25 06:49:27;;;;;;;1.27;0.28;;;9.00;99.90;;;;;;5008188;28;20046;-81
2022/09/25 06:51:53;;;;;;;0.82;0.28;;;9.10;99.90;;;;;;5008410;28;20026;-78
2022/09/25 06:54:19;;;;;;;1.33;0.20;;;9.20;99.90;;;;;;5008907;28;20426;-81
2022/09/25 06:56:48;;;;;;;2.00;0.30;;;9.20;99.90;;;;;;5010244;28;20022;-80
2022/09/25 06:59:14;;;;;;;3.03;0.30;;;9.40;99.90;;;;;;5009866;28;20126;-79
2022/09/25 07:01:40;;;;;;;1.13;0.20;;;9.50;99.90;;;;;;5009085;28;20157;-79
2022/09/25 07:04:05;;;;;;;1.95;0.20;;;9.50;99.90;;;;;;5010061;28;20031;-80
2022/09/25 07:06:33;;;;;;;0.90;0.22;;;9.70;99.90;;;;;;5007734;28;20034;-79
2022/09/25 07:08:59;;;;;;;2.75;0.30;;;9.70;99.90;;;;;;5009114;28;20033;-82
2022/09/25 07:11:27;;;;;;;1.02;0.20;;;9.80;99.90;;;;;;5009424;28;20460;-79
2022/09/25 07:13:55;;;;;;;3.38;0.30;;;10.00;99.90;;;;;;5009580;28;20029;-79
2022/09/25 07:16:23;;;;;;;4.43;0.50;;;10.10;99.90;;;;;;5008567;28;20525;-81
2022/09/25 07:18:52;;;;;;;1.27;0.20;;;10.20;99.90;;;;;;5009882;28;20501;-80
2022/09/25 07:21:20;;;;;;;2.78;0.30;;;10.30;99.90;;;;;;5008766;28;20124;-81
2022/09/25 07:23:47;;;;;;;2.53;0.20;;;10.30;99.90;;;;;;5024859;28;20040;-78
2022/09/25 07:26:21;;;;;;;2.30;0.30;;;10.40;99.90;;;;;;5007593;28;20029;-78
2022/09/25 07:28:53;;;;;;;0.98;0.30;;;10.50;99.90;;;;;;5008763;28;20045;-80
2022/09/25 07:31:22;;;;;;;3.20;0.40;;;10.60;99.90;;;;;;5008324;28;20484;-78
2022/09/25 07:33:48;;;;;;;3.17;0.50;;;10.60;99.90;;;;;;5006054;28;20030;-79
2022/09/25 07:36:15;;;;;;;3.65;0.30;;;10.80;99.90;;;;;;5005565;28;20034;-79
2022/09/25 07:38:41;;;;;;;2.42;0.30;;;10.90;99.90;;;;;;5008611;28;20392;-80
2022/09/25 07:41:10;;;;;;;1.38;0.28;;;11.00;99.90;;;;;;5007699;28;20038;-81
2022/09/25 07:43:37;;;;;;;2.28;0.30;;;11.10;99.90;;;;;;5008250;28;20038;-79
2022/09/25 07:46:03;;;;;;;3.85;0.30;;;11.20;99.90;;;;;;5009444;28;20367;-80
2022/09/25 07:48:30;;;;;;;4.60;0.60;;;11.20;99.90;;;;;;5007152;28;20382;-80
2022/09/25 07:51:04;;;;;;;3.03;0.32;;;11.30;99.90;;;;;;5006389;28;20022;-80
2022/09/25 07:53:30;;;;;;;2.25;0.40;;;11.40;99.90;;;;;;5020361;28;20381;-78
2022/09/25 07:56:00;;;;;;;4.20;0.40;;;11.50;99.90;;;;;;5008286;28;20116;-81
2022/09/25 07:58:26;;;;;;;2.05;0.30;;;11.70;99.90;;;;;;5008566;28;20026;-80
2022/09/25 08:00:53;;;;;;;1.63;0.30;;;11.80;99.90;;;;;;5008488;28;20069;-80
2022/09/25 08:03:19;;;;;;;1.20;0.20;;;12.00;99.90;;;;;;5008089;28;20022;-78
2022/09/25 08:05:45;;;;;;;1.42;0.20;;;12.10;99.90;;;;;;5008680;28;20040;-80
2022/09/25 08:08:11;;;;;;;1.38;0.20;;;12.30;99.90;;;;;;5007743;28;20033;-81
2022/09/25 08:10:36;;;;;;;1.63;0.10;;;12.40;99.90;;;;;;5009097;28;20018;-83
2022/09/25 08:13:03;;;;;;;2.72;0.15;;;12.70;99.90;;;;;;5008293;28;20029;-80
2022/09/25 08:15:29;;;;;;;0.98;0.20;;;12.60;99.90;;;;;;5009504;28;20057;-82
2022/09/25 08:17:54;;;;;;;1.85;0.20;;;12.60;99.90;;;;;;4990602;28;20083;-79
2022/09/25 08:20:20;;;;;;;1.42;0.20;;;12.80;99.90;;;;;;5007627;28;20053;-81
2022/09/25 08:22:46;;;;;;;1.38;0.20;;;13.00;99.90;;;;;;5007130;28;20137;-82
2022/09/25 08:25:12;;;;;;;1.30;0.10;;;13.20;99.90;;;;;;5006831;28;20274;-78
2022/09/25 08:27:42;;;;;;;2.15;0.20;;;13.40;99.90;;;;;;5007593;28;20539;-82
2022/09/25 08:30:09;;;;;;;1.38;0.20;;;13.50;99.90;;;;;;5023122;28;20405;-79
2022/09/25 08:32:35;;;;;;;4.63;0.30;;;13.50;99.90;;;;;;4988318;28;20486;-82
2022/09/25 08:35:01;;;;;;;5.95;0.20;;;13.70;99.90;;;;;;5005866;28;20030;-79
2022/09/25 08:37:27;;;;;;;2.75;0.25;;;13.70;99.90;;;;;;5006729;28;20516;-78
2022/09/25 08:39:53;;;;;;;2.22;0.20;;;13.60;99.90;;;;;;5008290;28;20479;-81
2022/09/25 08:42:28;;;;;;;1.10;0.20;;;13.90;99.90;;;;;;5006500;28;20610;-81
2022/09/25 08:50:28;;;;;;;1.95;0.20;;;14.10;99.90;;;;;;5006067;28;20406;-80
2022/09/25 08:53:20;;;;;;;4.68;0.20;;;14.10;99.90;;;;;;4990305;28;20025;-79
2022/09/25 08:58:41;;;;;;;2.25;0.10;;;14.40;99.90;;;;;;5006292;28;20441;-80
2022/09/25 09:01:11;;;;;;;1.52;0.10;;;14.40;99.90;;;;;;5006634;28;20049;-80
2022/09/25 09:03:52;;;;;;;2.88;0.20;;;14.30;99.90;;;;;;4990641;28;20037;-80
2022/09/25 09:06:18;;;;;;;1.63;0.10;;;14.40;99.90;;;;;;5019985;28;20034;-80
2022/09/25 09:08:54;;;;;;;1.75;0.10;;;14.50;99.90;;;;;;5006505;28;20104;-79
2022/09/25 09:11:35;;;;;;;1.63;0.10;;;14.50;99.90;;;;;;5004620;28;20025;-80
2022/09/25 09:14:09;;;;;;;1.50;0.13;;;14.60;99.90;;;;;;5008186;28;20054;-81
2022/09/25 09:16:56;;;;;;;1.27;0.10;;;14.60;99.90;;;;;;5007188;28;20029;-80
2022/09/25 09:19:22;;;;;;;2.55;0.10;;;14.60;99.90;;;;;;5005944;28;20049;-80
2022/09/25 09:21:54;;;;;;;2.65;0.10;;;14.70;99.90;;;;;;5007416;28;20466;-80
2022/09/25 09:24:51;;;;;;;1.42;0.10;;;14.90;99.90;;;;;;5007207;28;20034;-80
2022/09/25 09:27:23;;;;;;;2.95;0.22;;;14.90;99.90;;;;;;5005363;28;20116;-80
2022/09/25 09:30:07;;;;;;;1.65;0.10;;;15.00;99.90;;;;;;5008198;28;20437;-81
2022/09/25 09:33:10;;;;;;;1.95;0.05;;;15.00;99.90;;;;;;5006578;28;20034;-80
2022/09/25 09:35:52;;;;;;;2.85;0.20;;;15.10;99.90;;;;;;5022805;28;20378;-81
2022/09/25 09:38:20;;;;;;;1.35;0.10;;;15.00;99.90;;;;;;5003988;28;20053;-81
2022/09/25 09:41:13;;;;;;;2.70;0.10;;;15.20;99.90;;;;;;5006275;28;20060;-80
2022/09/25 09:43:57;;;;;;;0.90;0.10;;;15.20;99.90;;;;;;5005302;28;20041;-81
2022/09/25 09:46:44;;;;;;;1.38;0.10;;;15.30;99.90;;;;;;5005923;28;20032;-80
2022/09/25 09:49:20;;;;;;;0.85;0.00;;;15.50;99.90;;;;;;5020210;28;20037;-79
2022/09/25 09:52:09;;;;;;;1.60;0.10;;;15.50;99.90;;;;;;5022698;28;20038;-81
2022/09/25 09:54:54;;;;;;;0.82;0.10;;;15.60;99.90;;;;;;5005707;28;20037;-79
2022/09/25 09:57:22;;;;;;;1.20;0.13;;;15.40;99.90;;;;;;5006529;28;20022;-81
2022/09/25 09:59:56;;;;;;;0.40;0.00;;;15.60;99.90;;;;;;5021799;28;20026;-81
2022/09/25 10:02:40;;;;;;;0.98;0.00;;;15.70;99.90;;;;;;5004617;28;20388;-82
2022/09/25 10:05:42;;;;;;;1.95;0.10;;;15.60;99.90;;;;;;5021392;28;20467;-82
2022/09/25 10:08:09;;;;;;;1.60;0.10;;;15.70;99.90;;;;;;5004309;28;20035;-80
2022/09/25 10:10:42;;;;;;;1.02;0.10;;;15.60;99.90;;;;;;5005785;28;20026;-82
2022/09/25 10:13:19;;;;;;;0.65;0.10;;;15.70;99.90;;;;;;5006676;28;20054;-80
2022/09/25 10:15:57;;;;;;;1.13;0.10;;;15.70;99.90;;;;;;4988972;28;20382;-81
2022/09/25 10:18:27;;;;;;;1.90;0.10;;;15.70;99.90;;;;;;5006500;28;20083;-80
2022/09/25 10:21:17;;;;;;;0.65;0.10;;;15.50;99.90;;;;;;5024301;28;20462;-81
2022/09/25 10:23:54;;;;;;;1.20;0.00;;;15.40;99.90;;;;;;5010222;28;20048;-80
2022/09/25 10:26:35;;;;;;;1.30;0.10;;;15.80;99.90;;;;;;5025407;28;20055;-81
2022/09/25 10:29:21;;;;;;;0.40;0.00;;;16.10;99.90;;;;;;5008539;28;20390;-81
2022/09/25 10:31:55;;;;;;;0.68;0.10;;;16.50;99.90;;;;;;5009267;28;20030;-82
2022/09/25 10:34:22;;;;;;;1.77;0.10;;;16.50;99.90;;;;;;5014922;28;20078;-81
2022/09/25 10:36:53;;;;;;;2.13;0.10;;;16.40;99.90;;;;;;5010687;28;20320;-82
2022/09/25 10:39:39;;;;;;;1.30;0.10;;;16.50;99.90;;;;;;5008128;28;20037;-81
2022/09/25 10:42:26;;;;;;;1.42;0.05;;;16.10;99.90;;;;;;4992377;28;20042;-82
2022/09/25 10:44:55;;;;;;;0.90;0.10;;;16.40;99.90;;;;;;5010079;28;20029;-82
2022/09/25 10:50:17;;;;;;;1.83;0.00;;;16.70;99.90;;;;;;5009870;28;20092;-81
2022/09/25 10:52:51;;;;;;;1.48;0.00;;;17.30;99.90;;;;;;5010452;28;20132;-81
2022/09/25 10:55:24;;;;;;;0.68;0.10;;;17.40;99.90;;;;;;5007965;28;20029;-83
2022/09/25 10:57:57;;;;;;;1.40;0.10;;;16.30;99.90;;;;;;4998397;28;20074;-81
2022/09/25 11:00:25;;;;;;;1.60;0.10;;;15.80;99.90;;;;;;5009522;28;20508;-81
2022/09/25 11:02:59;;;;;;;2.42;0.15;;;15.50;99.90;;;;;;5009829;28;20049;-81
2022/09/25 11:05:32;;;;;;;0.80;0.10;;;15.20;99.90;;;;;;5025180;28;20508;-81
2022/09/25 11:08:01;;;;;;;0.35;0.00;;;15.20;99.90;;;;;;5023291;28;20048;-78
2022/09/25 11:10:46;;;;;;;1.98;0.10;;;15.00;99.90;;;;;;5009573;28;20026;-79
2022/09/25 11:13:25;;;;;;;0.47;0.00;;;15.00;99.90;;;;;;5009356;28;20037;-81
2022/09/25 11:15:54;;;;;;;2.20;0.15;;;15.60;99.90;;;;;;5007814;28;20073;-80
2022/09/25 11:18:44;;;;;;;0.55;0.00;;;15.70;99.90;;;;;;5008136;28;20429;-80
2022/09/25 11:21:20;;;;;;;1.10;0.10;;;16.20;99.90;;;;;;5009375;28;20034;-79
2022/09/25 11:24:11;;;;;;;1.50;0.10;;;16.20;99.90;;;;;;5023388;28;20423;-80
2022/09/25 11:26:47;;;;;;;1.05;0.00;;;16.30;99.90;;;;;;5009548;28;20025;-79
2022/09/25 11:29:31;;;;;;;0.38;0.00;;;16.40;99.90;;;;;;5007449;28;20045;-79
2022/09/25 11:32:22;;;;;;;0.52;0.10;;;16.70;99.90;;;;;;4992299;28;20111;-79
2022/09/25 11:35:15;;;;;;;0.40;0.00;;;16.80;99.90;;;;;;5007572;28;20289;-79
2022/09/25 11:38:01;;;;;;;1.23;0.00;;;16.70;99.90;;;;;;5008117;28;20030;-80
2022/09/25 11:43:45;;;;;;;1.00;0.10;;;16.80;99.90;;;;;;5023541;28;20037;-80
2022/09/25 11:46:23;;;;;;;0.43;0.00;;;16.60;99.90;;;;;;5007378;28;20513;-80
2022/09/25 11:49:07;;;;;;;0.30;0.00;;;16.60;99.90;;;;;;5007849;28;20034;-79
2022/09/25 11:51:51;;;;;;;0.65;0.00;;;16.60;99.90;;;;;;5007151;28;20030;-80
2022/09/25 11:54:26;;;;;;;0.90;0.10;;;16.90;99.90;;;;;;5023357;28;20052;-79
2022/09/25 11:57:00;;;;;;;2.42;0.10;;;17.10;99.90;;;;;;5004548;28;20386;-79
2022/09/25 11:59:54;;;;;;;0.30;0.00;;;17.00;99.90;;;;;;4990433;28;20176;-80
2022/09/25 12:02:41;;;;;;;1.10;0.00;;;16.90;99.90;;;;;;5008645;28;20084;-80
2022/09/25 12:05:37;;;;;;;1.00;0.00;;;16.80;99.90;;;;;;5006540;28;20500;-80
2022/09/25 12:08:11;;;;;;;1.65;0.00;;;16.60;99.90;;;;;;5007607;28;20041;-80
2022/09/25 12:10:54;;;;;;;1.42;0.00;;;16.80;99.90;;;;;;5007497;28;20026;-80
2022/09/25 12:13:43;;;;;;;2.03;0.10;;;17.30;99.90;;;;;;4991088;28;20471;-80
2022/09/25 12:16:46;;;;;;;1.13;0.00;;;17.20;99.90;;;;;;5008182;28;20034;-80
2022/09/25 12:19:22;;;;;;;1.20;0.20;;;17.10;99.90;;;;;;4976730;28;20034;-80
2022/09/25 12:22:36;;;;;;;0.63;0.00;;;17.30;99.90;;;;;;4992517;28;20539;-80
2022/09/25 12:25:27;;;;;;;3.85;0.17;;;16.80;99.90;;;;;;5002768;28;20083;-81
2022/09/25 12:28:16;;;;;;;0.55;0.00;;;16.50;99.90;;;;;;5008019;28;20053;-80
2022/09/25 12:31:00;;;;;;;1.02;0.10;;;16.50;99.90;;;;;;4991099;28;20133;-80
2022/09/25 12:33:44;;;;;;;1.45;0.20;;;16.40;99.90;;;;;;4990676;28;20037;-80
2022/09/25 12:36:16;;;;;;;0.70;0.00;;;16.30;99.90;;;;;;5007021;28;20172;-79
2022/09/25 12:38:54;;;;;;;0.65;0.00;;;16.40;99.90;;;;;;5008649;28;20049;-79
2022/09/25 12:41:48;;;;;;;0.93;0.10;;;16.50;99.90;;;;;;5006137;28;20025;-81
2022/09/25 12:44:40;;;;;;;1.20;0.10;;;16.90;99.90;;;;;;5006267;28;20036;-80
2022/09/25 12:47:19;;;;;;;1.00;0.00;;;16.60;99.90;;;;;;5008262;28;20030;-80
2022/09/25 12:50:13;;;;;;;0.60;0.00;;;16.20;99.90;;;;;;4987484;28;20516;-80
2022/09/25 12:52:52;;;;;;;1.17;0.10;;;16.20;99.90;;;;;;5006232;28;20073;-79
2022/09/25 12:55:25;;;;;;;1.38;0.10;;;16.20;99.90;;;;;;4969678;28;20037;-79
2022/09/25 12:58:05;;;;;;;0.77;0.10;;;16.20;99.90;;;;;;5008151;28;20091;-79
2022/09/25 13:00:34;;;;;;;0.65;0.00;;;16.20;99.90;;;;;;5000225;28;20134;-79
2022/09/25 13:03:22;;;;;;;1.13;0.10;;;16.00;99.90;;;;;;4990167;28;20030;-79
2022/09/25 13:06:09;;;;;;;2.17;0.10;;;16.10;99.90;;;;;;5007957;28;20084;-80
2022/09/25 13:08:49;;;;;;;0.55;0.10;;;16.60;99.90;;;;;;5007145;28;20034;-79
2022/09/25 13:11:30;;;;;;;0.65;0.10;;;16.60;99.90;;;;;;5007450;28;20037;-81
2022/09/25 13:13:58;;;;;;;1.02;0.10;;;16.70;99.90;;;;;;5008142;28;20034;-81
2022/09/25 13:16:24;;;;;;;0.80;0.00;;;16.70;99.90;;;;;;5005590;28;20065;-80
2022/09/25 13:19:24;;;;;;;2.28;0.00;;;16.70;99.90;;;;;;5006041;28;20072;-80
2022/09/25 13:21:50;;;;;;;1.30;0.00;;;16.40;99.90;;;;;;5006464;28;20575;-80
2022/09/25 13:24:17;;;;;;;0.38;0.00;;;16.30;99.90;;;;;;5005856;28;20033;-75
2022/09/25 13:26:51;;;;;;;0.60;0.00;;;16.20;99.90;;;;;;5007695;28;20482;-77
2022/09/25 13:29:29;;;;;;;1.05;0.10;;;16.00;99.90;;;;;;4989532;28;20034;-79
2022/09/25 13:32:33;;;;;;;1.25;0.10;;;16.00;99.90;;;;;;5006362;28;20022;-80
2022/09/25 13:35:14;;;;;;;2.35;0.10;;;15.90;99.90;;;;;;4997549;28;20034;-80
2022/09/25 13:37:40;;;;;;;2.45;0.00;;;15.90;99.90;;;;;;5007267;28;20021;-80
2022/09/25 13:43:28;;;;;;;2.38;0.10;;;15.80;99.90;;;;;;5007139;28;20069;-80